createdAt,value
2019-04-21T00:02:39.708Z,14.56
2019-04-21T00:08:12.816Z,14.55
2019-04-21T00:12:56.120Z,14.50
2019-04-21T00:17:56.048Z,14.34
2019-04-21T00:23:10.213Z,14.10
2019-04-21T00:28:16.914Z,13.93
2019-04-21T00:33:09.067Z,13.68
2019-04-21T00:38:31.162Z,13.84
2019-04-21T00:43:25.278Z,13.47
2019-04-21T00:48:34.420Z,13.28
2019-04-21T00:53:53.486Z,13.17
2019-04-21T00:58:49.995Z,13.36
2019-04-21T01:03:51.971Z,13.43
2019-04-21T01:08:48.919Z,13.37
2019-04-21T01:14:00.634Z,13.34
2019-04-21T01:18:57.725Z,13.27
2019-04-21T01:23:42.268Z,13.22
2019-04-21T01:29:00.179Z,13.22
2019-04-21T01:34:08.814Z,13.17
2019-04-21T01:39:14.933Z,13.10
2019-04-21T01:44:23.863Z,13.02
2019-04-21T01:49:11.454Z,12.93
2019-04-21T01:54:45.545Z,12.84
2019-04-21T01:59:35.575Z,12.76
2019-04-21T02:04:57.568Z,12.62
2019-04-21T02:09:50.723Z,12.48
2019-04-21T02:15:06.367Z,12.45
2019-04-21T02:19:56.127Z,12.41
2019-04-21T02:25:10.846Z,12.39
2019-04-21T02:30:12.183Z,12.43
2019-04-21T02:35:30.720Z,12.37
2019-04-21T02:50:31.842Z,12.13
2019-04-21T02:55:28.831Z,12.11
2019-04-21T03:00:55.540Z,12.03
2019-04-21T03:16:22.997Z,11.90
2019-04-21T03:26:27.476Z,11.70
2019-04-21T03:37:00.401Z,11.58
2019-04-21T03:41:44.019Z,11.53
2019-04-21T03:46:41.319Z,11.47
2019-04-21T03:51:49.920Z,11.43
2019-04-21T03:57:06.061Z,11.43
2019-04-21T04:02:06.533Z,11.26
2019-04-21T04:07:39.738Z,11.07
2019-04-21T04:12:30.074Z,11.15
2019-04-21T04:27:53.135Z,11.02
2019-04-21T04:43:00.102Z,10.88
2019-04-21T04:47:58.366Z,10.90
2019-04-21T04:53:07.422Z,10.96
2019-04-21T05:03:14.939Z,10.91
2019-04-21T05:08:31.617Z,10.92
2019-04-21T05:13:21.428Z,10.89
2019-04-21T05:18:28.290Z,10.88
2019-04-21T05:23:11.765Z,10.96
2019-04-21T05:28:12.473Z,10.93
2019-04-21T05:33:34.367Z,10.74
2019-04-21T05:38:50.548Z,10.83
2019-04-21T05:43:51.670Z,11.02
2019-04-21T05:49:04.550Z,11.27
2019-04-21T05:54:14.753Z,11.57
2019-04-21T05:59:07.956Z,11.63
2019-04-21T06:04:16.856Z,11.77
2019-04-21T06:09:19.036Z,11.91
2019-04-21T06:14:25.147Z,12.03
2019-04-21T06:19:30.654Z,12.12
2019-04-21T06:24:33.804Z,12.19
2019-04-21T06:29:31.510Z,12.29
2019-04-21T06:34:51.776Z,12.46
2019-04-21T06:39:54.045Z,12.57
2019-04-21T06:44:51.232Z,12.64
2019-04-21T06:49:45.667Z,12.75
2019-04-21T06:54:46.902Z,12.86
2019-04-21T06:59:51.251Z,12.97
2019-04-21T07:04:54.853Z,13.05
2019-04-21T07:15:19.793Z,13.31
2019-04-21T07:20:07.194Z,13.44
2019-04-21T07:25:10.530Z,13.56
2019-04-21T07:30:12.947Z,13.67
2019-04-21T07:35:15.041Z,13.78
2019-04-21T07:40:15.136Z,13.91
2019-04-21T07:45:20.602Z,14.05
2019-04-21T07:50:35.202Z,14.15
2019-04-21T07:55:33.962Z,14.23
2019-04-21T08:00:51.467Z,14.33
2019-04-21T08:05:47.199Z,14.47
2019-04-21T08:10:47.148Z,14.58
2019-04-21T08:15:52.993Z,14.68
2019-04-21T08:20:53.372Z,14.80
2019-04-21T08:31:01.401Z,15.08
2019-04-21T08:36:17.727Z,15.17
2019-04-21T08:41:08.178Z,15.31
2019-04-21T08:46:13.889Z,15.41
2019-04-21T08:51:30.239Z,15.56
2019-04-21T08:56:40.129Z,15.70
2019-04-21T09:01:50.759Z,15.82
2019-04-21T09:11:59.730Z,16.00
2019-04-21T09:16:56.403Z,16.04
2019-04-21T09:22:20.799Z,16.13
2019-04-21T09:27:03.500Z,16.28
2019-04-21T09:31:55.824Z,16.42
2019-04-21T09:37:13.989Z,16.55
2019-04-21T09:42:02.821Z,16.64
2019-04-21T09:47:05.154Z,16.77
2019-04-21T09:52:15.099Z,16.88
2019-04-21T09:57:24.380Z,16.95
2019-04-21T10:02:18.231Z,17.09
2019-04-21T10:07:26.378Z,17.19
2019-04-21T10:12:20.564Z,17.24
2019-04-21T10:17:29.650Z,17.29
2019-04-21T10:22:31.217Z,17.42
2019-04-21T10:27:32.803Z,17.54
2019-04-21T10:32:36.421Z,17.65
2019-04-21T11:32:47.791Z,18.56
2019-04-21T11:37:50.317Z,18.70
2019-04-21T11:42:53.560Z,18.86
2019-04-21T11:48:18.684Z,19.09
2019-04-21T11:53:21.047Z,21.18
2019-04-21T11:58:23.659Z,22.42
2019-04-21T12:03:25.443Z,22.63
2019-04-21T12:08:34.353Z,22.89
2019-04-21T12:13:32.088Z,22.99
2019-04-21T12:18:34.064Z,23.14
2019-04-21T12:23:36.472Z,23.32
2019-04-21T12:28:39.699Z,23.41
2019-04-21T12:34:07.893Z,23.46
2019-04-21T12:39:12.804Z,23.72
2019-04-21T12:44:14.918Z,24.05
2019-04-21T12:49:17.649Z,24.26
2019-04-21T12:54:19.717Z,24.31
2019-04-21T12:59:21.356Z,24.02
2019-04-21T13:04:23.855Z,23.91
2019-04-21T13:09:28.459Z,23.73
2019-04-21T13:14:29.624Z,23.67
2019-04-21T13:19:31.549Z,23.58
2019-04-21T13:24:33.686Z,23.32
2019-04-21T13:29:36.446Z,23.28
2019-04-21T13:34:38.176Z,23.38
2019-04-21T13:40:20.687Z,23.58
2019-04-21T13:45:02.967Z,23.49
2019-04-21T13:50:07.160Z,23.13
2019-04-21T13:55:09.635Z,22.93
2019-04-21T14:00:13.246Z,22.83
2019-04-21T14:05:15.879Z,22.77
2019-04-21T14:10:18.054Z,22.69
2019-04-21T14:15:20.304Z,22.44
2019-04-21T14:20:22.074Z,22.24
2019-04-21T14:25:23.933Z,22.25
2019-04-21T14:30:26.279Z,22.25
2019-04-21T14:35:29.370Z,22.29
2019-04-21T14:40:33.347Z,22.32
2019-04-21T14:45:46.001Z,22.39
2019-04-21T14:50:55.282Z,22.44
2019-04-21T14:55:57.485Z,22.64
2019-04-21T15:01:02.072Z,22.67
2019-04-21T15:06:05.412Z,22.57
2019-04-21T15:11:08.609Z,22.40
2019-04-21T15:16:11.032Z,22.29
2019-04-21T15:21:13.325Z,22.32
2019-04-21T15:26:15.054Z,22.29
2019-04-21T15:31:23.890Z,22.32
2019-04-21T15:36:20.992Z,22.69
2019-04-21T15:41:22.740Z,23.38
2019-04-21T15:46:24.869Z,23.98
2019-04-21T15:51:26.483Z,24.68
2019-04-21T15:56:35.059Z,25.08
2019-04-21T16:01:48.445Z,25.35
2019-04-21T16:06:50.086Z,25.43
2019-04-21T16:11:51.706Z,25.67
2019-04-21T16:16:53.715Z,25.96
2019-04-21T16:21:56.743Z,26.02
2019-04-21T16:27:02.824Z,25.82
2019-04-21T16:32:02.124Z,25.59
2019-04-21T16:37:03.913Z,25.33
2019-04-21T16:42:08.307Z,24.92
2019-04-21T16:47:09.700Z,24.52
2019-04-21T16:52:20.856Z,24.22
2019-04-21T16:57:28.030Z,23.84
2019-04-21T17:02:30.386Z,23.57
2019-04-21T17:07:32.429Z,23.36
2019-04-21T17:12:35.554Z,23.11
2019-04-21T17:17:59.989Z,22.84
2019-04-21T17:22:41.734Z,22.56
2019-04-21T17:27:44.870Z,22.36
2019-04-21T17:32:49.766Z,22.25
2019-04-21T17:37:50.215Z,22.10
2019-04-21T17:43:01.547Z,21.94
2019-04-21T17:48:01.298Z,21.74
2019-04-21T17:53:10.589Z,21.41
2019-04-21T17:58:22.070Z,21.12
2019-04-21T18:03:43.643Z,20.89
2019-04-21T18:08:38.715Z,20.67
2019-04-21T18:13:22.995Z,20.48
2019-04-21T18:18:23.534Z,20.36
2019-04-21T18:23:42.883Z,20.20
2019-04-21T18:28:35.008Z,19.99
2019-04-21T18:33:42.218Z,19.88
2019-04-21T18:39:10.257Z,19.82
2019-04-21T18:44:28.172Z,19.69
2019-04-21T18:49:11.419Z,19.55
2019-04-21T18:54:37.119Z,19.44
2019-04-21T18:59:31.510Z,19.30
2019-04-21T19:04:29.340Z,19.15
2019-04-21T19:14:52.114Z,18.98
2019-04-21T19:20:04.693Z,18.86
2019-04-21T19:24:59.766Z,18.63
2019-04-21T19:30:23.381Z,18.52
2019-04-21T19:34:49.690Z,18.35
2019-04-21T19:40:03.594Z,18.23
2019-04-21T19:45:11.878Z,18.31
2019-04-21T19:50:15.828Z,18.26
2019-04-21T19:55:02.384Z,18.20
2019-04-21T20:00:07.446Z,18.10
2019-04-21T20:05:13.592Z,17.97
2019-04-21T20:10:32.808Z,17.91
2019-04-21T20:15:41.537Z,17.83
2019-04-21T20:20:21.273Z,17.77
2019-04-21T20:25:24.949Z,17.64
2019-04-21T20:30:42.292Z,17.60
2019-04-21T20:35:57.218Z,17.53
2019-04-21T20:40:41.267Z,17.42
2019-04-21T20:45:59.353Z,17.19
2019-04-21T20:51:03.187Z,17.29
2019-04-21T20:55:58.203Z,17.24
2019-04-21T21:01:22.545Z,17.24
2019-04-21T21:06:03.742Z,17.15
2019-04-21T21:11:08.008Z,16.91
2019-04-21T21:16:20.151Z,16.83
2019-04-21T21:21:20.728Z,16.89
2019-04-21T21:26:25.329Z,16.92
2019-04-21T21:31:35.086Z,16.62
2019-04-21T21:36:31.792Z,16.54
2019-04-21T21:41:26.557Z,16.72
2019-04-21T21:46:42.713Z,16.71
2019-04-21T21:51:48.408Z,16.69
2019-04-21T21:56:32.578Z,16.71
2019-04-21T22:01:39.869Z,16.69
2019-04-21T22:06:47.140Z,16.58
2019-04-21T22:11:42.204Z,16.46
2019-04-21T22:17:00.989Z,16.43
2019-04-21T22:22:07.727Z,16.38
2019-04-21T22:26:52.475Z,16.35
2019-04-21T22:32:01.377Z,16.30
2019-04-21T22:37:14.343Z,16.21
2019-04-21T22:42:11.158Z,16.15
2019-04-21T22:47:12.072Z,16.13
2019-04-21T22:52:15.134Z,16.07
2019-04-21T22:57:17.652Z,16.03
2019-04-21T23:02:22.639Z,15.91
2019-04-21T23:07:24.339Z,15.85
2019-04-21T23:12:31.164Z,15.99
2019-04-21T23:17:50.748Z,15.95
2019-04-21T23:23:00.849Z,15.85
2019-04-21T23:27:56.191Z,15.76
2019-04-21T23:32:50.438Z,15.72
2019-04-21T23:37:51.959Z,15.67
2019-04-21T23:42:47.244Z,15.64
2019-04-21T23:48:05.013Z,15.55
2019-04-21T23:52:53.321Z,15.49
2019-04-21T23:58:02.320Z,15.39
